sensor_id;sensor_type;location;lat;lon;timestamp;P1;durP1;ratioP1;P2;durP2;ratioP2
34200;SDS011;20469;55.638;37.670;2023-10-13T00:02:00;7.18;;;1.10;;
34200;SDS011;20469;55.638;37.670;2023-10-13T00:04:29;4.85;;;1.15;;
34200;SDS011;20469;55.638;37.670;2023-10-13T00:06:59;3.25;;;1.13;;
34200;SDS011;20469;55.638;37.670;2023-10-13T00:09:29;6.90;;;1.17;;
34200;SDS011;20469;55.638;37.670;2023-10-13T00:11:59;5.15;;;1.50;;
34200;SDS011;20469;55.638;37.670;2023-10-13T00:14:27;5.97;;;1.65;;
34200;SDS011;20469;55.638;37.670;2023-10-13T00:17:01;5.50;;;1.50;;
34200;SDS011;20469;55.638;37.670;2023-10-13T00:19:43;3.10;;;1.02;;
34200;SDS011;20469;55.638;37.670;2023-10-13T00:22:13;6.80;;;1.60;;
34200;SDS011;20469;55.638;37.670;2023-10-13T00:24:43;3.35;;;1.27;;
34200;SDS011;20469;55.638;37.670;2023-10-13T00:27:20;3.60;;;1.20;;
34200;SDS011;20469;55.638;37.670;2023-10-13T00:30:08;5.82;;;1.45;;
34200;SDS011;20469;55.638;37.670;2023-10-13T00:32:43;4.18;;;1.13;;
34200;SDS011;20469;55.638;37.670;2023-10-13T00:35:13;2.70;;;0.98;;
34200;SDS011;20469;55.638;37.670;2023-10-13T00:38:03;4.53;;;1.42;;
34200;SDS011;20469;55.638;37.670;2023-10-13T00:40:34;3.33;;;1.20;;
34200;SDS011;20469;55.638;37.670;2023-10-13T00:43:01;3.85;;;1.00;;
34200;SDS011;20469;55.638;37.670;2023-10-13T00:48:22;5.63;;;1.25;;
34200;SDS011;20469;55.638;37.670;2023-10-13T00:51:03;4.47;;;1.17;;
34200;SDS011;20469;55.638;37.670;2023-10-13T00:53:34;3.25;;;1.17;;
34200;SDS011;20469;55.638;37.670;2023-10-13T00:56:07;5.00;;;1.40;;
34200;SDS011;20469;55.638;37.670;2023-10-13T00:58:36;3.72;;;1.50;;
34200;SDS011;20469;55.638;37.670;2023-10-13T01:01:06;4.93;;;1.33;;
34200;SDS011;20469;55.638;37.670;2023-10-13T01:03:56;4.32;;;1.10;;
34200;SDS011;20469;55.638;37.670;2023-10-13T01:06:27;4.68;;;1.08;;
34200;SDS011;20469;55.638;37.670;2023-10-13T01:11:47;3.80;;;1.17;;
34200;SDS011;20469;55.638;37.670;2023-10-13T01:14:19;3.50;;;1.38;;
34200;SDS011;20469;55.638;37.670;2023-10-13T01:16:48;3.65;;;0.90;;
34200;SDS011;20469;55.638;37.670;2023-10-13T01:19:19;5.53;;;1.35;;
34200;SDS011;20469;55.638;37.670;2023-10-13T01:21:51;4.10;;;1.10;;
34200;SDS011;20469;55.638;37.670;2023-10-13T01:24:25;2.58;;;0.90;;
34200;SDS011;20469;55.638;37.670;2023-10-13T01:26:55;5.90;;;1.27;;
34200;SDS011;20469;55.638;37.670;2023-10-13T01:29:22;2.83;;;1.17;;
34200;SDS011;20469;55.638;37.670;2023-10-13T01:31:55;4.88;;;1.60;;
34200;SDS011;20469;55.638;37.670;2023-10-13T01:34:25;6.32;;;1.30;;
34200;SDS011;20469;55.638;37.670;2023-10-13T01:36:54;4.20;;;1.05;;
34200;SDS011;20469;55.638;37.670;2023-10-13T01:39:22;5.35;;;1.40;;
34200;SDS011;20469;55.638;37.670;2023-10-13T01:41:55;3.88;;;1.20;;
34200;SDS011;20469;55.638;37.670;2023-10-13T01:44:24;5.82;;;1.30;;
34200;SDS011;20469;55.638;37.670;2023-10-13T01:46:57;3.15;;;1.10;;
34200;SDS011;20469;55.638;37.670;2023-10-13T01:49:25;6.90;;;1.60;;
34200;SDS011;20469;55.638;37.670;2023-10-13T01:51:53;4.07;;;1.33;;
34200;SDS011;20469;55.638;37.670;2023-10-13T01:54:21;4.70;;;1.23;;
34200;SDS011;20469;55.638;37.670;2023-10-13T01:56:48;7.18;;;1.33;;
34200;SDS011;20469;55.638;37.670;2023-10-13T01:59:16;8.23;;;1.73;;
34200;SDS011;20469;55.638;37.670;2023-10-13T02:01:44;4.07;;;1.50;;
34200;SDS011;20469;55.638;37.670;2023-10-13T02:04:12;9.95;;;2.78;;
34200;SDS011;20469;55.638;37.670;2023-10-13T02:06:40;4.20;;;1.33;;
34200;SDS011;20469;55.638;37.670;2023-10-13T02:09:09;4.50;;;1.10;;
34200;SDS011;20469;55.638;37.670;2023-10-13T02:11:40;7.97;;;1.50;;
34200;SDS011;20469;55.638;37.670;2023-10-13T02:14:08;6.22;;;1.60;;
34200;SDS011;20469;55.638;37.670;2023-10-13T02:16:43;5.35;;;1.45;;
34200;SDS011;20469;55.638;37.670;2023-10-13T02:19:14;6.55;;;2.00;;
34200;SDS011;20469;55.638;37.670;2023-10-13T02:21:43;3.38;;;1.30;;
34200;SDS011;20469;55.638;37.670;2023-10-13T02:24:12;5.72;;;1.40;;
34200;SDS011;20469;55.638;37.670;2023-10-13T02:26:40;8.20;;;1.80;;
34200;SDS011;20469;55.638;37.670;2023-10-13T02:29:08;6.72;;;1.83;;
34200;SDS011;20469;55.638;37.670;2023-10-13T02:31:42;3.80;;;1.38;;
34200;SDS011;20469;55.638;37.670;2023-10-13T02:34:22;5.57;;;1.77;;
34200;SDS011;20469;55.638;37.670;2023-10-13T02:36:49;4.80;;;1.58;;
34200;SDS011;20469;55.638;37.670;2023-10-13T02:39:18;5.20;;;1.75;;
34200;SDS011;20469;55.638;37.670;2023-10-13T02:41:52;6.55;;;1.67;;
34200;SDS011;20469;55.638;37.670;2023-10-13T02:44:22;3.45;;;1.40;;
34200;SDS011;20469;55.638;37.670;2023-10-13T02:47:00;4.32;;;1.20;;
34200;SDS011;20469;55.638;37.670;2023-10-13T02:49:27;8.10;;;1.58;;
34200;SDS011;20469;55.638;37.670;2023-10-13T02:52:00;7.82;;;1.45;;
34200;SDS011;20469;55.638;37.670;2023-10-13T02:54:38;6.10;;;1.38;;
34200;SDS011;20469;55.638;37.670;2023-10-13T02:57:13;5.05;;;1.30;;
34200;SDS011;20469;55.638;37.670;2023-10-13T02:59:44;6.88;;;1.77;;
34200;SDS011;20469;55.638;37.670;2023-10-13T03:02:13;6.05;;;1.50;;
34200;SDS011;20469;55.638;37.670;2023-10-13T03:04:55;5.07;;;1.70;;
34200;SDS011;20469;55.638;37.670;2023-10-13T03:07:29;5.63;;;1.65;;
34200;SDS011;20469;55.638;37.670;2023-10-13T03:09:58;6.63;;;1.65;;
34200;SDS011;20469;55.638;37.670;2023-10-13T03:12:29;8.38;;;2.40;;
34200;SDS011;20469;55.638;37.670;2023-10-13T03:15:01;5.25;;;2.10;;
34200;SDS011;20469;55.638;37.670;2023-10-13T03:20:15;7.28;;;1.88;;
34200;SDS011;20469;55.638;37.670;2023-10-13T03:22:43;8.70;;;1.90;;
34200;SDS011;20469;55.638;37.670;2023-10-13T03:25:14;8.75;;;2.17;;
34200;SDS011;20469;55.638;37.670;2023-10-13T03:27:51;7.18;;;2.17;;
34200;SDS011;20469;55.638;37.670;2023-10-13T03:30:19;5.13;;;1.42;;
34200;SDS011;20469;55.638;37.670;2023-10-13T03:32:48;6.97;;;1.83;;
34200;SDS011;20469;55.638;37.670;2023-10-13T03:35:20;7.50;;;1.98;;
34200;SDS011;20469;55.638;37.670;2023-10-13T03:37:52;7.95;;;1.77;;
34200;SDS011;20469;55.638;37.670;2023-10-13T03:40:20;10.73;;;2.50;;
34200;SDS011;20469;55.638;37.670;2023-10-13T03:45:44;8.00;;;2.03;;
34200;SDS011;20469;55.638;37.670;2023-10-13T03:48:15;7.30;;;1.80;;
34200;SDS011;20469;55.638;37.670;2023-10-13T03:51:00;8.45;;;2.05;;
34200;SDS011;20469;55.638;37.670;2023-10-13T03:53:35;10.32;;;1.80;;
34200;SDS011;20469;55.638;37.670;2023-10-13T03:56:06;8.10;;;2.47;;
34200;SDS011;20469;55.638;37.670;2023-10-13T03:58:39;5.72;;;2.00;;
34200;SDS011;20469;55.638;37.670;2023-10-13T04:01:09;6.20;;;1.80;;
34200;SDS011;20469;55.638;37.670;2023-10-13T04:03:38;5.07;;;1.63;;
34200;SDS011;20469;55.638;37.670;2023-10-13T04:06:23;7.13;;;1.60;;
34200;SDS011;20469;55.638;37.670;2023-10-13T04:09:18;7.75;;;1.33;;
34200;SDS011;20469;55.638;37.670;2023-10-13T04:11:59;6.78;;;1.65;;
34200;SDS011;20469;55.638;37.670;2023-10-13T04:14:35;6.30;;;1.60;;
34200;SDS011;20469;55.638;37.670;2023-10-13T04:19:50;5.30;;;1.20;;
34200;SDS011;20469;55.638;37.670;2023-10-13T04:22:37;7.85;;;1.80;;
34200;SDS011;20469;55.638;37.670;2023-10-13T04:28:07;8.25;;;2.08;;
34200;SDS011;20469;55.638;37.670;2023-10-13T04:30:46;7.85;;;2.17;;
34200;SDS011;20469;55.638;37.670;2023-10-13T04:33:25;8.02;;;1.80;;
34200;SDS011;20469;55.638;37.670;2023-10-13T04:36:08;5.68;;;1.73;;
34200;SDS011;20469;55.638;37.670;2023-10-13T04:38:51;6.53;;;2.38;;
34200;SDS011;20469;55.638;37.670;2023-10-13T04:41:26;8.73;;;2.85;;
34200;SDS011;20469;55.638;37.670;2023-10-13T04:44:24;5.95;;;1.60;;
34200;SDS011;20469;55.638;37.670;2023-10-13T04:47:07;9.00;;;2.70;;
34200;SDS011;20469;55.638;37.670;2023-10-13T04:49:38;5.30;;;1.80;;
34200;SDS011;20469;55.638;37.670;2023-10-13T04:52:09;8.60;;;2.20;;
34200;SDS011;20469;55.638;37.670;2023-10-13T04:54:42;8.82;;;2.33;;
34200;SDS011;20469;55.638;37.670;2023-10-13T04:57:17;8.85;;;2.42;;
34200;SDS011;20469;55.638;37.670;2023-10-13T04:59:47;6.15;;;1.80;;
34200;SDS011;20469;55.638;37.670;2023-10-13T05:02:33;5.03;;;1.92;;
34200;SDS011;20469;55.638;37.670;2023-10-13T05:05:10;6.93;;;1.70;;
34200;SDS011;20469;55.638;37.670;2023-10-13T05:07:41;7.18;;;1.60;;
34200;SDS011;20469;55.638;37.670;2023-10-13T05:10:28;5.50;;;1.60;;
34200;SDS011;20469;55.638;37.670;2023-10-13T05:13:14;8.95;;;1.83;;
34200;SDS011;20469;55.638;37.670;2023-10-13T05:16:00;5.75;;;1.65;;
34200;SDS011;20469;55.638;37.670;2023-10-13T05:18:47;8.85;;;2.25;;
34200;SDS011;20469;55.638;37.670;2023-10-13T05:21:33;6.25;;;1.60;;
34200;SDS011;20469;55.638;37.670;2023-10-13T05:24:23;5.18;;;1.83;;
34200;SDS011;20469;55.638;37.670;2023-10-13T05:27:29;5.97;;;1.30;;
34200;SDS011;20469;55.638;37.670;2023-10-13T05:30:15;4.93;;;1.98;;
34200;SDS011;20469;55.638;37.670;2023-10-13T05:33:02;7.72;;;1.45;;
34200;SDS011;20469;55.638;37.670;2023-10-13T05:35:48;8.00;;;2.10;;
34200;SDS011;20469;55.638;37.670;2023-10-13T05:38:34;3.88;;;1.50;;
34200;SDS011;20469;55.638;37.670;2023-10-13T05:41:21;8.88;;;1.90;;
34200;SDS011;20469;55.638;37.670;2023-10-13T05:44:08;4.28;;;1.48;;
34200;SDS011;20469;55.638;37.670;2023-10-13T05:46:54;5.97;;;1.40;;
34200;SDS011;20469;55.638;37.670;2023-10-13T05:49:48;4.22;;;1.40;;
34200;SDS011;20469;55.638;37.670;2023-10-13T05:52:51;6.77;;;1.67;;
34200;SDS011;20469;55.638;37.670;2023-10-13T05:55:25;7.57;;;2.05;;
34200;SDS011;20469;55.638;37.670;2023-10-13T05:58:11;5.55;;;1.60;;
34200;SDS011;20469;55.638;37.670;2023-10-13T06:00:58;5.53;;;2.00;;
34200;SDS011;20469;55.638;37.670;2023-10-13T06:03:44;5.82;;;1.70;;
34200;SDS011;20469;55.638;37.670;2023-10-13T06:06:31;8.52;;;2.10;;
34200;SDS011;20469;55.638;37.670;2023-10-13T06:09:18;6.20;;;2.25;;
34200;SDS011;20469;55.638;37.670;2023-10-13T06:12:04;4.63;;;1.80;;
34200;SDS011;20469;55.638;37.670;2023-10-13T06:14:51;6.70;;;1.40;;
34200;SDS011;20469;55.638;37.670;2023-10-13T06:17:37;6.07;;;1.60;;
34200;SDS011;20469;55.638;37.670;2023-10-13T06:20:24;5.25;;;1.77;;
34200;SDS011;20469;55.638;37.670;2023-10-13T06:23:10;5.25;;;1.45;;
34200;SDS011;20469;55.638;37.670;2023-10-13T06:25:57;7.60;;;1.65;;
34200;SDS011;20469;55.638;37.670;2023-10-13T06:28:43;6.35;;;1.60;;
34200;SDS011;20469;55.638;37.670;2023-10-13T06:31:12;9.13;;;1.80;;
34200;SDS011;20469;55.638;37.670;2023-10-13T06:33:50;6.97;;;1.45;;
34200;SDS011;20469;55.638;37.670;2023-10-13T06:36:17;5.18;;;1.40;;
34200;SDS011;20469;55.638;37.670;2023-10-13T06:38:45;6.30;;;1.60;;
34200;SDS011;20469;55.638;37.670;2023-10-13T06:41:22;4.13;;;1.30;;
34200;SDS011;20469;55.638;37.670;2023-10-13T06:43:59;4.25;;;1.60;;
34200;SDS011;20469;55.638;37.670;2023-10-13T06:46:27;6.15;;;1.73;;
34200;SDS011;20469;55.638;37.670;2023-10-13T06:48:56;3.83;;;1.50;;
34200;SDS011;20469;55.638;37.670;2023-10-13T06:51:26;4.93;;;1.55;;
34200;SDS011;20469;55.638;37.670;2023-10-13T06:54:07;7.47;;;2.08;;
34200;SDS011;20469;55.638;37.670;2023-10-13T06:56:54;7.03;;;1.98;;
34200;SDS011;20469;55.638;37.670;2023-10-13T06:59:24;2.60;;;1.10;;
34200;SDS011;20469;55.638;37.670;2023-10-13T07:01:54;4.05;;;1.30;;
34200;SDS011;20469;55.638;37.670;2023-10-13T07:04:38;3.30;;;1.20;;
34200;SDS011;20469;55.638;37.670;2023-10-13T07:07:06;4.72;;;1.50;;
34200;SDS011;20469;55.638;37.670;2023-10-13T07:09:36;4.43;;;1.50;;
34200;SDS011;20469;55.638;37.670;2023-10-13T07:12:06;5.25;;;1.40;;
34200;SDS011;20469;55.638;37.670;2023-10-13T07:14:47;4.95;;;1.30;;
34200;SDS011;20469;55.638;37.670;2023-10-13T07:17:18;2.70;;;1.10;;
34200;SDS011;20469;55.638;37.670;2023-10-13T07:19:53;5.85;;;1.20;;
34200;SDS011;20469;55.638;37.670;2023-10-13T07:22:22;6.30;;;1.23;;
34200;SDS011;20469;55.638;37.670;2023-10-13T07:24:54;3.40;;;1.20;;
34200;SDS011;20469;55.638;37.670;2023-10-13T07:27:24;4.80;;;1.33;;
34200;SDS011;20469;55.638;37.670;2023-10-13T07:29:53;3.50;;;1.20;;
34200;SDS011;20469;55.638;37.670;2023-10-13T07:32:23;4.75;;;1.23;;
34200;SDS011;20469;55.638;37.670;2023-10-13T07:34:53;3.08;;;0.90;;
34200;SDS011;20469;55.638;37.670;2023-10-13T07:37:24;3.38;;;1.40;;
34200;SDS011;20469;55.638;37.670;2023-10-13T07:39:55;4.90;;;1.30;;
34200;SDS011;20469;55.638;37.670;2023-10-13T07:42:25;6.88;;;1.33;;
34200;SDS011;20469;55.638;37.670;2023-10-13T07:44:58;3.00;;;1.48;;
34200;SDS011;20469;55.638;37.670;2023-10-13T07:47:26;2.35;;;1.10;;
34200;SDS011;20469;55.638;37.670;2023-10-13T07:49:54;3.47;;;1.20;;
34200;SDS011;20469;55.638;37.670;2023-10-13T07:52:23;5.80;;;1.30;;
34200;SDS011;20469;55.638;37.670;2023-10-13T07:54:57;7.13;;;1.25;;
34200;SDS011;20469;55.638;37.670;2023-10-13T07:57:47;3.80;;;1.30;;
34200;SDS011;20469;55.638;37.670;2023-10-13T08:00:22;7.07;;;2.08;;
34200;SDS011;20469;55.638;37.670;2023-10-13T08:03:14;3.50;;;1.13;;
34200;SDS011;20469;55.638;37.670;2023-10-13T08:05:43;3.35;;;1.50;;
34200;SDS011;20469;55.638;37.670;2023-10-13T08:08:29;2.92;;;1.20;;
34200;SDS011;20469;55.638;37.670;2023-10-13T08:11:08;2.65;;;1.20;;
34200;SDS011;20469;55.638;37.670;2023-10-13T08:16:41;4.50;;;1.30;;
34200;SDS011;20469;55.638;37.670;2023-10-13T08:19:27;4.53;;;0.98;;
34200;SDS011;20469;55.638;37.670;2023-10-13T08:21:59;4.25;;;1.42;;
34200;SDS011;20469;55.638;37.670;2023-10-13T08:24:47;4.28;;;1.38;;
34200;SDS011;20469;55.638;37.670;2023-10-13T08:30:21;5.82;;;1.50;;
34200;SDS011;20469;55.638;37.670;2023-10-13T08:33:00;4.90;;;1.58;;
34200;SDS011;20469;55.638;37.670;2023-10-13T08:35:44;5.55;;;1.23;;
34200;SDS011;20469;55.638;37.670;2023-10-13T08:38:22;2.97;;;1.50;;
34200;SDS011;20469;55.638;37.670;2023-10-13T08:40:58;3.58;;;1.83;;
34200;SDS011;20469;55.638;37.670;2023-10-13T08:43:44;4.63;;;1.10;;
34200;SDS011;20469;55.638;37.670;2023-10-13T08:46:18;5.47;;;1.38;;
34200;SDS011;20469;55.638;37.670;2023-10-13T08:48:57;3.45;;;1.50;;
34200;SDS011;20469;55.638;37.670;2023-10-13T08:51:42;4.45;;;1.30;;
34200;SDS011;20469;55.638;37.670;2023-10-13T08:54:17;2.95;;;0.98;;
34200;SDS011;20469;55.638;37.670;2023-10-13T08:57:19;2.45;;;1.10;;
34200;SDS011;20469;55.638;37.670;2023-10-13T09:00:03;4.22;;;1.48;;
34200;SDS011;20469;55.638;37.670;2023-10-13T09:03:04;4.90;;;1.25;;
34200;SDS011;20469;55.638;37.670;2023-10-13T09:05:50;5.28;;;1.20;;
34200;SDS011;20469;55.638;37.670;2023-10-13T09:08:29;4.95;;;1.20;;
34200;SDS011;20469;55.638;37.670;2023-10-13T09:11:11;6.82;;;1.45;;
34200;SDS011;20469;55.638;37.670;2023-10-13T09:13:40;4.65;;;1.17;;
34200;SDS011;20469;55.638;37.670;2023-10-13T09:16:12;3.67;;;1.23;;
34200;SDS011;20469;55.638;37.670;2023-10-13T09:19:08;3.15;;;1.20;;
34200;SDS011;20469;55.638;37.670;2023-10-13T09:21:39;4.35;;;1.13;;
34200;SDS011;20469;55.638;37.670;2023-10-13T09:24:10;4.43;;;1.25;;
34200;SDS011;20469;55.638;37.670;2023-10-13T09:26:50;4.22;;;1.30;;
34200;SDS011;20469;55.638;37.670;2023-10-13T09:29:22;4.78;;;1.50;;
34200;SDS011;20469;55.638;37.670;2023-10-13T09:32:03;3.38;;;1.30;;
34200;SDS011;20469;55.638;37.670;2023-10-13T09:34:38;4.30;;;1.40;;
34200;SDS011;20469;55.638;37.670;2023-10-13T09:37:11;4.47;;;1.40;;
34200;SDS011;20469;55.638;37.670;2023-10-13T09:39:43;3.13;;;1.38;;
34200;SDS011;20469;55.638;37.670;2023-10-13T09:42:15;2.78;;;1.50;;
34200;SDS011;20469;55.638;37.670;2023-10-13T09:44:45;4.15;;;1.30;;
34200;SDS011;20469;55.638;37.670;2023-10-13T09:47:20;3.78;;;1.30;;
34200;SDS011;20469;55.638;37.670;2023-10-13T09:49:59;4.88;;;1.27;;
34200;SDS011;20469;55.638;37.670;2023-10-13T09:52:32;2.90;;;1.38;;
34200;SDS011;20469;55.638;37.670;2023-10-13T09:55:03;3.75;;;1.42;;
34200;SDS011;20469;55.638;37.670;2023-10-13T09:57:36;2.45;;;1.10;;
34200;SDS011;20469;55.638;37.670;2023-10-13T10:00:15;3.00;;;1.30;;
34200;SDS011;20469;55.638;37.670;2023-10-13T10:03:05;4.80;;;1.40;;
34200;SDS011;20469;55.638;37.670;2023-10-13T10:05:42;4.22;;;1.50;;
34200;SDS011;20469;55.638;37.670;2023-10-13T10:08:25;5.35;;;1.45;;
34200;SDS011;20469;55.638;37.670;2023-10-13T10:16:30;3.50;;;1.10;;
34200;SDS011;20469;55.638;37.670;2023-10-13T10:19:03;3.65;;;1.33;;
34200;SDS011;20469;55.638;37.670;2023-10-13T10:21:34;4.20;;;1.33;;
34200;SDS011;20469;55.638;37.670;2023-10-13T10:24:02;4.93;;;1.23;;
34200;SDS011;20469;55.638;37.670;2023-10-13T10:26:50;3.30;;;1.20;;
34200;SDS011;20469;55.638;37.670;2023-10-13T10:29:21;5.05;;;1.45;;
34200;SDS011;20469;55.638;37.670;2023-10-13T10:31:49;7.75;;;1.55;;
34200;SDS011;20469;55.638;37.670;2023-10-13T10:34:18;2.08;;;1.27;;
34200;SDS011;20469;55.638;37.670;2023-10-13T10:36:46;3.55;;;1.20;;
34200;SDS011;20469;55.638;37.670;2023-10-13T10:39:15;4.60;;;1.30;;
34200;SDS011;20469;55.638;37.670;2023-10-13T10:41:46;3.78;;;1.10;;
34200;SDS011;20469;55.638;37.670;2023-10-13T10:44:28;4.78;;;1.30;;
34200;SDS011;20469;55.638;37.670;2023-10-13T10:47:09;6.43;;;1.20;;
34200;SDS011;20469;55.638;37.670;2023-10-13T10:49:37;3.05;;;1.40;;
34200;SDS011;20469;55.638;37.670;2023-10-13T10:52:07;3.83;;;1.35;;
34200;SDS011;20469;55.638;37.670;2023-10-13T10:54:45;6.38;;;1.25;;
34200;SDS011;20469;55.638;37.670;2023-10-13T10:57:18;2.83;;;1.38;;
34200;SDS011;20469;55.638;37.670;2023-10-13T10:59:46;3.92;;;1.42;;
34200;SDS011;20469;55.638;37.670;2023-10-13T11:02:18;2.90;;;1.60;;
34200;SDS011;20469;55.638;37.670;2023-10-13T11:04:54;3.28;;;1.48;;
34200;SDS011;20469;55.638;37.670;2023-10-13T11:07:24;6.72;;;2.10;;
34200;SDS011;20469;55.638;37.670;2023-10-13T11:09:54;6.05;;;1.75;;
34200;SDS011;20469;55.638;37.670;2023-10-13T11:12:58;4.40;;;1.60;;
34200;SDS011;20469;55.638;37.670;2023-10-13T11:15:55;4.97;;;1.60;;
34200;SDS011;20469;55.638;37.670;2023-10-13T11:18:30;2.55;;;1.50;;
34200;SDS011;20469;55.638;37.670;2023-10-13T11:21:07;5.97;;;2.00;;
34200;SDS011;20469;55.638;37.670;2023-10-13T11:23:38;6.40;;;1.70;;
34200;SDS011;20469;55.638;37.670;2023-10-13T11:26:06;2.28;;;1.30;;
34200;SDS011;20469;55.638;37.670;2023-10-13T11:28:34;3.65;;;1.33;;
34200;SDS011;20469;55.638;37.670;2023-10-13T11:31:05;3.60;;;1.15;;
34200;SDS011;20469;55.638;37.670;2023-10-13T11:33:46;3.50;;;1.70;;
34200;SDS011;20469;55.638;37.670;2023-10-13T11:36:32;4.78;;;1.30;;
34200;SDS011;20469;55.638;37.670;2023-10-13T11:39:01;3.75;;;1.50;;
34200;SDS011;20469;55.638;37.670;2023-10-13T11:41:29;4.70;;;2.50;;
34200;SDS011;20469;55.638;37.670;2023-10-13T11:44:11;1.77;;;1.15;;
34200;SDS011;20469;55.638;37.670;2023-10-13T11:46:39;3.22;;;1.50;;
34200;SDS011;20469;55.638;37.670;2023-10-13T11:49:23;3.70;;;1.35;;
34200;SDS011;20469;55.638;37.670;2023-10-13T11:51:56;4.38;;;1.45;;
34200;SDS011;20469;55.638;37.670;2023-10-13T11:54:45;3.38;;;1.27;;
34200;SDS011;20469;55.638;37.670;2023-10-13T11:57:14;4.70;;;1.20;;
34200;SDS011;20469;55.638;37.670;2023-10-13T11:59:44;2.78;;;1.13;;
34200;SDS011;20469;55.638;37.670;2023-10-13T12:02:20;3.25;;;1.45;;
34200;SDS011;20469;55.638;37.670;2023-10-13T12:04:54;8.25;;;2.78;;
34200;SDS011;20469;55.638;37.670;2023-10-13T12:07:24;5.70;;;1.50;;
34200;SDS011;20469;55.638;37.670;2023-10-13T12:10:12;1.40;;;1.02;;
34200;SDS011;20469;55.638;37.670;2023-10-13T12:12:47;3.25;;;1.30;;
34200;SDS011;20469;55.638;37.670;2023-10-13T12:15:20;3.25;;;1.30;;
34200;SDS011;20469;55.638;37.670;2023-10-13T12:18:03;3.38;;;1.20;;
34200;SDS011;20469;55.638;37.670;2023-10-13T12:20:32;2.67;;;1.45;;
34200;SDS011;20469;55.638;37.670;2023-10-13T12:23:02;2.95;;;1.30;;
34200;SDS011;20469;55.638;37.670;2023-10-13T12:25:43;3.85;;;1.50;;
34200;SDS011;20469;55.638;37.670;2023-10-13T12:28:23;2.45;;;1.65;;
34200;SDS011;20469;55.638;37.670;2023-10-13T12:30:55;4.82;;;1.15;;
34200;SDS011;20469;55.638;37.670;2023-10-13T12:33:25;7.55;;;1.40;;
34200;SDS011;20469;55.638;37.670;2023-10-13T12:36:07;3.88;;;1.48;;
34200;SDS011;20469;55.638;37.670;2023-10-13T12:38:53;6.63;;;1.63;;
34200;SDS011;20469;55.638;37.670;2023-10-13T12:41:33;5.95;;;1.98;;
34200;SDS011;20469;55.638;37.670;2023-10-13T12:44:20;6.43;;;1.63;;
34200;SDS011;20469;55.638;37.670;2023-10-13T12:47:07;4.72;;;1.55;;
34200;SDS011;20469;55.638;37.670;2023-10-13T12:49:54;3.97;;;1.70;;
34200;SDS011;20469;55.638;37.670;2023-10-13T12:52:25;7.28;;;1.80;;
34200;SDS011;20469;55.638;37.670;2023-10-13T12:54:53;2.42;;;1.30;;
34200;SDS011;20469;55.638;37.670;2023-10-13T12:57:25;5.95;;;1.60;;
34200;SDS011;20469;55.638;37.670;2023-10-13T12:59:53;3.53;;;1.38;;
34200;SDS011;20469;55.638;37.670;2023-10-13T13:02:21;3.72;;;1.45;;
34200;SDS011;20469;55.638;37.670;2023-10-13T13:04:56;2.35;;;1.50;;
34200;SDS011;20469;55.638;37.670;2023-10-13T13:07:33;5.15;;;1.60;;
34200;SDS011;20469;55.638;37.670;2023-10-13T13:10:11;3.63;;;1.50;;
34200;SDS011;20469;55.638;37.670;2023-10-13T13:12:41;6.63;;;1.52;;
34200;SDS011;20469;55.638;37.670;2023-10-13T13:15:09;5.03;;;1.60;;
34200;SDS011;20469;55.638;37.670;2023-10-13T13:17:39;3.80;;;1.20;;
34200;SDS011;20469;55.638;37.670;2023-10-13T13:20:08;3.13;;;1.40;;
34200;SDS011;20469;55.638;37.670;2023-10-13T13:22:53;3.33;;;1.40;;
34200;SDS011;20469;55.638;37.670;2023-10-13T13:25:21;3.97;;;1.40;;
34200;SDS011;20469;55.638;37.670;2023-10-13T13:27:57;4.47;;;1.50;;
34200;SDS011;20469;55.638;37.670;2023-10-13T13:30:31;4.32;;;1.50;;
34200;SDS011;20469;55.638;37.670;2023-10-13T13:33:01;2.08;;;1.17;;
34200;SDS011;20469;55.638;37.670;2023-10-13T13:35:41;4.10;;;1.30;;
34200;SDS011;20469;55.638;37.670;2023-10-13T13:38:15;3.60;;;1.90;;
34200;SDS011;20469;55.638;37.670;2023-10-13T13:40:48;4.20;;;1.45;;
34200;SDS011;20469;55.638;37.670;2023-10-13T13:43:21;3.53;;;1.30;;
34200;SDS011;20469;55.638;37.670;2023-10-13T13:45:59;2.25;;;1.42;;
34200;SDS011;20469;55.638;37.670;2023-10-13T13:48:30;4.32;;;1.73;;
34200;SDS011;20469;55.638;37.670;2023-10-13T13:51:02;4.43;;;1.63;;
34200;SDS011;20469;55.638;37.670;2023-10-13T13:53:31;4.03;;;1.60;;
34200;SDS011;20469;55.638;37.670;2023-10-13T13:56:02;6.70;;;2.00;;
34200;SDS011;20469;55.638;37.670;2023-10-13T13:58:34;4.70;;;1.90;;
34200;SDS011;20469;55.638;37.670;2023-10-13T14:01:05;6.32;;;2.67;;
34200;SDS011;20469;55.638;37.670;2023-10-13T14:03:41;7.00;;;2.22;;
34200;SDS011;20469;55.638;37.670;2023-10-13T14:06:13;4.93;;;2.15;;
34200;SDS011;20469;55.638;37.670;2023-10-13T14:09:00;7.07;;;2.22;;
34200;SDS011;20469;55.638;37.670;2023-10-13T14:11:59;8.90;;;1.80;;
34200;SDS011;20469;55.638;37.670;2023-10-13T14:14:45;3.97;;;1.77;;
34200;SDS011;20469;55.638;37.670;2023-10-13T14:17:23;6.68;;;2.22;;
34200;SDS011;20469;55.638;37.670;2023-10-13T14:19:57;5.32;;;1.80;;
34200;SDS011;20469;55.638;37.670;2023-10-13T14:22:27;5.93;;;1.80;;
34200;SDS011;20469;55.638;37.670;2023-10-13T14:24:54;7.03;;;2.80;;
34200;SDS011;20469;55.638;37.670;2023-10-13T14:27:22;4.30;;;1.95;;
34200;SDS011;20469;55.638;37.670;2023-10-13T14:29:50;7.38;;;1.90;;
34200;SDS011;20469;55.638;37.670;2023-10-13T14:32:20;5.93;;;1.80;;
34200;SDS011;20469;55.638;37.670;2023-10-13T14:34:52;6.78;;;2.15;;
34200;SDS011;20469;55.638;37.670;2023-10-13T14:37:23;4.03;;;1.90;;
34200;SDS011;20469;55.638;37.670;2023-10-13T14:39:58;6.40;;;2.05;;
34200;SDS011;20469;55.638;37.670;2023-10-13T14:42:30;6.90;;;2.40;;
34200;SDS011;20469;55.638;37.670;2023-10-13T14:45:02;6.65;;;2.25;;
34200;SDS011;20469;55.638;37.670;2023-10-13T14:47:40;5.18;;;2.70;;
34200;SDS011;20469;55.638;37.670;2023-10-13T14:50:09;2.95;;;1.75;;
34200;SDS011;20469;55.638;37.670;2023-10-13T14:52:49;5.82;;;2.10;;
34200;SDS011;20469;55.638;37.670;2023-10-13T14:55:18;7.05;;;2.22;;
34200;SDS011;20469;55.638;37.670;2023-10-13T14:57:48;6.03;;;2.20;;
34200;SDS011;20469;55.638;37.670;2023-10-13T15:00:19;4.68;;;1.90;;
34200;SDS011;20469;55.638;37.670;2023-10-13T15:02:53;5.63;;;1.98;;
34200;SDS011;20469;55.638;37.670;2023-10-13T15:05:22;4.45;;;2.00;;
34200;SDS011;20469;55.638;37.670;2023-10-13T15:07:51;6.32;;;2.17;;
34200;SDS011;20469;55.638;37.670;2023-10-13T15:10:18;5.18;;;2.30;;
34200;SDS011;20469;55.638;37.670;2023-10-13T15:12:46;7.47;;;2.28;;
34200;SDS011;20469;55.638;37.670;2023-10-13T15:15:15;4.72;;;2.20;;
34200;SDS011;20469;55.638;37.670;2023-10-13T15:17:43;6.28;;;2.22;;
34200;SDS011;20469;55.638;37.670;2023-10-13T15:20:11;6.07;;;2.28;;
34200;SDS011;20469;55.638;37.670;2023-10-13T15:22:45;6.05;;;2.25;;
34200;SDS011;20469;55.638;37.670;2023-10-13T15:25:15;7.03;;;2.25;;
34200;SDS011;20469;55.638;37.670;2023-10-13T15:27:59;5.88;;;2.60;;
34200;SDS011;20469;55.638;37.670;2023-10-13T15:30:35;7.63;;;2.65;;
34200;SDS011;20469;55.638;37.670;2023-10-13T15:33:19;8.77;;;2.88;;
34200;SDS011;20469;55.638;37.670;2023-10-13T15:35:51;7.65;;;3.50;;
34200;SDS011;20469;55.638;37.670;2023-10-13T15:38:18;6.78;;;2.75;;
34200;SDS011;20469;55.638;37.670;2023-10-13T15:40:47;6.75;;;2.50;;
34200;SDS011;20469;55.638;37.670;2023-10-13T15:43:22;5.03;;;2.30;;
34200;SDS011;20469;55.638;37.670;2023-10-13T15:45:49;7.97;;;2.65;;
34200;SDS011;20469;55.638;37.670;2023-10-13T15:48:19;6.80;;;2.45;;
34200;SDS011;20469;55.638;37.670;2023-10-13T15:50:51;4.70;;;2.25;;